sensor_id;sensor_type;location;lat;lon;timestamp;P1;durP1;ratioP1;P2;durP2;ratioP2
14732;SDS011;7457;50.960;6.830;2024-03-07T00:00:34;39.92;;;23.73;;
14732;SDS011;7457;50.960;6.830;2024-03-07T00:03:00;42.03;;;26.30;;
14732;SDS011;7457;50.960;6.830;2024-03-07T00:05:26;42.80;;;24.92;;
14732;SDS011;7457;50.960;6.830;2024-03-07T00:07:52;40.47;;;26.02;;
14732;SDS011;7457;50.960;6.830;2024-03-07T00:10:19;45.47;;;27.10;;
14732;SDS011;7457;50.960;6.830;2024-03-07T00:12:48;46.28;;;26.77;;
14732;SDS011;7457;50.960;6.830;2024-03-07T00:15:14;51.88;;;29.60;;
14732;SDS011;7457;50.960;6.830;2024-03-07T00:17:40;52.20;;;28.52;;
14732;SDS011;7457;50.960;6.830;2024-03-07T00:20:07;49.63;;;29.42;;
14732;SDS011;7457;50.960;6.830;2024-03-07T00:22:34;47.08;;;27.38;;
14732;SDS011;7457;50.960;6.830;2024-03-07T00:25:00;49.60;;;28.75;;
14732;SDS011;7457;50.960;6.830;2024-03-07T00:27:27;48.72;;;28.42;;
14732;SDS011;7457;50.960;6.830;2024-03-07T00:29:53;46.00;;;27.20;;
14732;SDS011;7457;50.960;6.830;2024-03-07T00:32:19;53.20;;;29.48;;
14732;SDS011;7457;50.960;6.830;2024-03-07T00:34:46;51.67;;;27.33;;
14732;SDS011;7457;50.960;6.830;2024-03-07T00:37:12;42.70;;;25.80;;
14732;SDS011;7457;50.960;6.830;2024-03-07T00:39:38;45.25;;;24.77;;
14732;SDS011;7457;50.960;6.830;2024-03-07T00:42:04;41.10;;;24.45;;
14732;SDS011;7457;50.960;6.830;2024-03-07T00:44:30;29.35;;;18.70;;
14732;SDS011;7457;50.960;6.830;2024-03-07T00:46:56;30.92;;;20.15;;
14732;SDS011;7457;50.960;6.830;2024-03-07T00:49:22;37.65;;;22.20;;
14732;SDS011;7457;50.960;6.830;2024-03-07T00:51:48;38.53;;;23.75;;
14732;SDS011;7457;50.960;6.830;2024-03-07T00:54:14;40.65;;;24.92;;
14732;SDS011;7457;50.960;6.830;2024-03-07T00:56:40;40.10;;;25.40;;
14732;SDS011;7457;50.960;6.830;2024-03-07T00:59:06;44.63;;;25.50;;
14732;SDS011;7457;50.960;6.830;2024-03-07T01:01:32;47.15;;;26.15;;
14732;SDS011;7457;50.960;6.830;2024-03-07T01:04:03;44.72;;;26.30;;
14732;SDS011;7457;50.960;6.830;2024-03-07T01:06:29;44.10;;;26.33;;
14732;SDS011;7457;50.960;6.830;2024-03-07T01:08:54;42.25;;;24.23;;
14732;SDS011;7457;50.960;6.830;2024-03-07T01:11:20;43.08;;;25.02;;
14732;SDS011;7457;50.960;6.830;2024-03-07T01:13:46;41.95;;;24.42;;
14732;SDS011;7457;50.960;6.830;2024-03-07T01:16:11;42.75;;;24.75;;
14732;SDS011;7457;50.960;6.830;2024-03-07T01:18:39;46.67;;;28.42;;
14732;SDS011;7457;50.960;6.830;2024-03-07T01:21:05;39.53;;;24.30;;
14732;SDS011;7457;50.960;6.830;2024-03-07T01:23:31;44.53;;;25.42;;
14732;SDS011;7457;50.960;6.830;2024-03-07T01:25:58;48.60;;;26.02;;
14732;SDS011;7457;50.960;6.830;2024-03-07T01:28:24;43.80;;;25.60;;
14732;SDS011;7457;50.960;6.830;2024-03-07T01:30:51;44.88;;;26.13;;
14732;SDS011;7457;50.960;6.830;2024-03-07T01:33:20;45.00;;;25.00;;
14732;SDS011;7457;50.960;6.830;2024-03-07T01:35:46;45.50;;;27.05;;
14732;SDS011;7457;50.960;6.830;2024-03-07T01:38:13;39.08;;;23.90;;
14732;SDS011;7457;50.960;6.830;2024-03-07T01:40:40;38.15;;;23.58;;
14732;SDS011;7457;50.960;6.830;2024-03-07T01:43:09;48.28;;;25.13;;
14732;SDS011;7457;50.960;6.830;2024-03-07T01:45:35;45.20;;;25.15;;
14732;SDS011;7457;50.960;6.830;2024-03-07T01:48:04;41.03;;;22.83;;
14732;SDS011;7457;50.960;6.830;2024-03-07T01:50:31;38.42;;;21.02;;
14732;SDS011;7457;50.960;6.830;2024-03-07T01:52:57;37.40;;;21.60;;
14732;SDS011;7457;50.960;6.830;2024-03-07T01:55:24;49.30;;;26.58;;
14732;SDS011;7457;50.960;6.830;2024-03-07T01:57:51;43.50;;;24.95;;
14732;SDS011;7457;50.960;6.830;2024-03-07T02:00:21;31.63;;;18.63;;
14732;SDS011;7457;50.960;6.830;2024-03-07T02:02:47;29.50;;;18.73;;
14732;SDS011;7457;50.960;6.830;2024-03-07T02:05:12;40.63;;;22.65;;
14732;SDS011;7457;50.960;6.830;2024-03-07T02:07:38;35.25;;;20.85;;
14732;SDS011;7457;50.960;6.830;2024-03-07T02:10:04;33.80;;;19.23;;
14732;SDS011;7457;50.960;6.830;2024-03-07T02:12:31;31.48;;;19.00;;
14732;SDS011;7457;50.960;6.830;2024-03-07T02:14:58;39.13;;;21.23;;
14732;SDS011;7457;50.960;6.830;2024-03-07T02:17:24;32.33;;;18.80;;
14732;SDS011;7457;50.960;6.830;2024-03-07T02:19:53;33.92;;;18.92;;
14732;SDS011;7457;50.960;6.830;2024-03-07T02:22:18;32.85;;;18.50;;
14732;SDS011;7457;50.960;6.830;2024-03-07T02:24:45;32.20;;;18.77;;
14732;SDS011;7457;50.960;6.830;2024-03-07T02:27:11;32.80;;;18.88;;
14732;SDS011;7457;50.960;6.830;2024-03-07T02:29:39;39.40;;;23.60;;
14732;SDS011;7457;50.960;6.830;2024-03-07T02:32:06;50.63;;;25.42;;
14732;SDS011;7457;50.960;6.830;2024-03-07T02:34:32;43.95;;;24.25;;
14732;SDS011;7457;50.960;6.830;2024-03-07T02:36:57;46.97;;;24.80;;
14732;SDS011;7457;50.960;6.830;2024-03-07T02:39:23;47.95;;;25.30;;
14732;SDS011;7457;50.960;6.830;2024-03-07T02:41:52;44.13;;;24.27;;
14732;SDS011;7457;50.960;6.830;2024-03-07T02:44:17;49.10;;;25.08;;
14732;SDS011;7457;50.960;6.830;2024-03-07T02:46:44;49.58;;;26.13;;
14732;SDS011;7457;50.960;6.830;2024-03-07T02:49:12;54.20;;;27.70;;
14732;SDS011;7457;50.960;6.830;2024-03-07T02:51:38;51.08;;;27.00;;
14732;SDS011;7457;50.960;6.830;2024-03-07T02:54:04;52.47;;;27.58;;
14732;SDS011;7457;50.960;6.830;2024-03-07T02:56:31;53.60;;;27.35;;
14732;SDS011;7457;50.960;6.830;2024-03-07T02:58:57;50.55;;;27.45;;
14732;SDS011;7457;50.960;6.830;2024-03-07T03:01:22;44.58;;;25.42;;
14732;SDS011;7457;50.960;6.830;2024-03-07T03:03:48;43.17;;;24.58;;
14732;SDS011;7457;50.960;6.830;2024-03-07T03:06:14;46.00;;;25.05;;
14732;SDS011;7457;50.960;6.830;2024-03-07T03:08:40;42.70;;;25.00;;
14732;SDS011;7457;50.960;6.830;2024-03-07T03:11:05;49.42;;;24.75;;
14732;SDS011;7457;50.960;6.830;2024-03-07T03:13:34;45.30;;;24.10;;
14732;SDS011;7457;50.960;6.830;2024-03-07T03:16:03;41.78;;;23.25;;
14732;SDS011;7457;50.960;6.830;2024-03-07T03:18:32;50.17;;;25.20;;
14732;SDS011;7457;50.960;6.830;2024-03-07T03:21:02;51.15;;;25.75;;
14732;SDS011;7457;50.960;6.830;2024-03-07T03:23:28;44.78;;;24.13;;
14732;SDS011;7457;50.960;6.830;2024-03-07T03:25:54;37.92;;;22.67;;
14732;SDS011;7457;50.960;6.830;2024-03-07T03:28:20;35.92;;;20.95;;
14732;SDS011;7457;50.960;6.830;2024-03-07T03:30:46;40.03;;;22.17;;
14732;SDS011;7457;50.960;6.830;2024-03-07T03:33:12;30.42;;;15.73;;
14732;SDS011;7457;50.960;6.830;2024-03-07T03:35:38;46.50;;;20.98;;
14732;SDS011;7457;50.960;6.830;2024-03-07T03:38:05;43.20;;;23.08;;
14732;SDS011;7457;50.960;6.830;2024-03-07T03:40:34;35.75;;;20.10;;
14732;SDS011;7457;50.960;6.830;2024-03-07T03:43:00;40.45;;;22.63;;
14732;SDS011;7457;50.960;6.830;2024-03-07T03:45:26;40.20;;;21.63;;
14732;SDS011;7457;50.960;6.830;2024-03-07T03:47:52;37.90;;;19.70;;
14732;SDS011;7457;50.960;6.830;2024-03-07T03:50:18;39.78;;;22.27;;
14732;SDS011;7457;50.960;6.830;2024-03-07T03:52:44;37.90;;;21.08;;
14732;SDS011;7457;50.960;6.830;2024-03-07T03:55:10;32.53;;;20.95;;
14732;SDS011;7457;50.960;6.830;2024-03-07T03:57:40;38.58;;;21.92;;
14732;SDS011;7457;50.960;6.830;2024-03-07T04:00:09;39.80;;;22.95;;
14732;SDS011;7457;50.960;6.830;2024-03-07T04:02:39;46.05;;;23.17;;
14732;SDS011;7457;50.960;6.830;2024-03-07T04:05:05;40.10;;;21.80;;
14732;SDS011;7457;50.960;6.830;2024-03-07T04:07:35;41.10;;;20.90;;
14732;SDS011;7457;50.960;6.830;2024-03-07T04:10:01;39.47;;;22.20;;
14732;SDS011;7457;50.960;6.830;2024-03-07T04:12:40;47.38;;;22.98;;
14732;SDS011;7457;50.960;6.830;2024-03-07T04:15:07;43.47;;;21.73;;
14732;SDS011;7457;50.960;6.830;2024-03-07T04:17:34;47.45;;;24.08;;
14732;SDS011;7457;50.960;6.830;2024-03-07T04:20:01;44.25;;;21.63;;
14732;SDS011;7457;50.960;6.830;2024-03-07T04:22:30;46.60;;;25.45;;
14732;SDS011;7457;50.960;6.830;2024-03-07T04:24:59;49.38;;;25.75;;
14732;SDS011;7457;50.960;6.830;2024-03-07T04:27:26;51.35;;;24.92;;
14732;SDS011;7457;50.960;6.830;2024-03-07T04:29:52;49.28;;;23.92;;
14732;SDS011;7457;50.960;6.830;2024-03-07T04:32:18;45.42;;;22.58;;
14732;SDS011;7457;50.960;6.830;2024-03-07T04:34:44;37.75;;;22.55;;
14732;SDS011;7457;50.960;6.830;2024-03-07T04:37:10;40.15;;;23.35;;
14732;SDS011;7457;50.960;6.830;2024-03-07T04:39:36;46.60;;;23.98;;
14732;SDS011;7457;50.960;6.830;2024-03-07T04:42:03;38.80;;;22.13;;
14732;SDS011;7457;50.960;6.830;2024-03-07T04:44:31;36.30;;;20.98;;
14732;SDS011;7457;50.960;6.830;2024-03-07T04:46:58;39.38;;;22.38;;
14732;SDS011;7457;50.960;6.830;2024-03-07T04:49:29;44.72;;;23.45;;
14732;SDS011;7457;50.960;6.830;2024-03-07T04:51:56;41.65;;;23.08;;
14732;SDS011;7457;50.960;6.830;2024-03-07T04:54:23;40.42;;;21.40;;
14732;SDS011;7457;50.960;6.830;2024-03-07T04:56:50;42.15;;;22.27;;
14732;SDS011;7457;50.960;6.830;2024-03-07T04:59:17;42.83;;;24.83;;
14732;SDS011;7457;50.960;6.830;2024-03-07T05:01:44;43.47;;;23.70;;
14732;SDS011;7457;50.960;6.830;2024-03-07T05:04:14;40.25;;;21.40;;
14732;SDS011;7457;50.960;6.830;2024-03-07T05:06:40;40.25;;;22.98;;
14732;SDS011;7457;50.960;6.830;2024-03-07T05:09:07;46.95;;;23.98;;
14732;SDS011;7457;50.960;6.830;2024-03-07T05:11:34;44.00;;;24.10;;
14732;SDS011;7457;50.960;6.830;2024-03-07T05:14:01;48.45;;;25.02;;
14732;SDS011;7457;50.960;6.830;2024-03-07T05:16:28;44.80;;;25.10;;
14732;SDS011;7457;50.960;6.830;2024-03-07T05:18:59;49.70;;;24.75;;
14732;SDS011;7457;50.960;6.830;2024-03-07T05:21:25;38.75;;;22.25;;
14732;SDS011;7457;50.960;6.830;2024-03-07T05:23:58;41.70;;;21.50;;
14732;SDS011;7457;50.960;6.830;2024-03-07T05:26:24;34.42;;;20.00;;
14732;SDS011;7457;50.960;6.830;2024-03-07T05:28:51;39.08;;;20.83;;
14732;SDS011;7457;50.960;6.830;2024-03-07T05:31:19;40.22;;;22.65;;
14732;SDS011;7457;50.960;6.830;2024-03-07T05:33:46;39.97;;;23.05;;
14732;SDS011;7457;50.960;6.830;2024-03-07T05:36:12;48.13;;;23.50;;
14732;SDS011;7457;50.960;6.830;2024-03-07T05:38:41;42.53;;;22.45;;
14732;SDS011;7457;50.960;6.830;2024-03-07T05:41:13;40.38;;;20.92;;
14732;SDS011;7457;50.960;6.830;2024-03-07T05:43:39;41.53;;;23.45;;
14732;SDS011;7457;50.960;6.830;2024-03-07T05:46:05;38.75;;;21.42;;
14732;SDS011;7457;50.960;6.830;2024-03-07T05:48:32;35.85;;;19.63;;
14732;SDS011;7457;50.960;6.830;2024-03-07T05:50:58;36.67;;;20.48;;
14732;SDS011;7457;50.960;6.830;2024-03-07T05:53:25;36.13;;;20.88;;
14732;SDS011;7457;50.960;6.830;2024-03-07T05:55:51;43.10;;;23.30;;
14732;SDS011;7457;50.960;6.830;2024-03-07T05:58:17;41.47;;;23.25;;
14732;SDS011;7457;50.960;6.830;2024-03-07T06:00:45;44.05;;;23.85;;
14732;SDS011;7457;50.960;6.830;2024-03-07T06:03:16;40.85;;;22.65;;
14732;SDS011;7457;50.960;6.830;2024-03-07T06:05:48;31.90;;;18.00;;
14732;SDS011;7457;50.960;6.830;2024-03-07T06:08:15;40.58;;;21.55;;
14732;SDS011;7457;50.960;6.830;2024-03-07T06:10:45;34.55;;;19.42;;
14732;SDS011;7457;50.960;6.830;2024-03-07T06:13:11;37.75;;;20.77;;
14732;SDS011;7457;50.960;6.830;2024-03-07T06:15:42;33.20;;;20.20;;
14732;SDS011;7457;50.960;6.830;2024-03-07T06:18:08;36.83;;;21.70;;
14732;SDS011;7457;50.960;6.830;2024-03-07T06:20:43;44.00;;;23.45;;
14732;SDS011;7457;50.960;6.830;2024-03-07T06:23:10;40.40;;;22.33;;
14732;SDS011;7457;50.960;6.830;2024-03-07T06:25:41;37.15;;;22.38;;
14732;SDS011;7457;50.960;6.830;2024-03-07T06:28:15;38.08;;;21.73;;
14732;SDS011;7457;50.960;6.830;2024-03-07T06:30:42;46.28;;;24.23;;
14732;SDS011;7457;50.960;6.830;2024-03-07T06:33:10;42.53;;;22.23;;
14732;SDS011;7457;50.960;6.830;2024-03-07T06:35:36;40.60;;;23.90;;
14732;SDS011;7457;50.960;6.830;2024-03-07T06:38:07;48.50;;;24.15;;
14732;SDS011;7457;50.960;6.830;2024-03-07T06:40:34;44.88;;;24.33;;
14732;SDS011;7457;50.960;6.830;2024-03-07T06:43:01;41.78;;;24.20;;
14732;SDS011;7457;50.960;6.830;2024-03-07T06:45:56;46.40;;;23.55;;
14732;SDS011;7457;50.960;6.830;2024-03-07T06:48:22;43.15;;;23.23;;
14732;SDS011;7457;50.960;6.830;2024-03-07T06:50:48;44.88;;;22.73;;
14732;SDS011;7457;50.960;6.830;2024-03-07T06:53:13;38.35;;;22.40;;
14732;SDS011;7457;50.960;6.830;2024-03-07T06:55:39;36.60;;;21.60;;
14732;SDS011;7457;50.960;6.830;2024-03-07T06:58:05;36.72;;;21.63;;
14732;SDS011;7457;50.960;6.830;2024-03-07T07:00:31;38.60;;;22.15;;
14732;SDS011;7457;50.960;6.830;2024-03-07T07:03:06;36.88;;;21.42;;
14732;SDS011;7457;50.960;6.830;2024-03-07T07:05:31;39.45;;;21.90;;
14732;SDS011;7457;50.960;6.830;2024-03-07T07:07:58;39.05;;;21.63;;
14732;SDS011;7457;50.960;6.830;2024-03-07T07:10:24;36.42;;;21.90;;
14732;SDS011;7457;50.960;6.830;2024-03-07T07:12:50;39.60;;;23.20;;
14732;SDS011;7457;50.960;6.830;2024-03-07T07:15:20;35.33;;;21.38;;
14732;SDS011;7457;50.960;6.830;2024-03-07T07:17:46;36.80;;;21.65;;
14732;SDS011;7457;50.960;6.830;2024-03-07T07:20:14;32.40;;;20.90;;
14732;SDS011;7457;50.960;6.830;2024-03-07T07:22:44;29.67;;;20.48;;
14732;SDS011;7457;50.960;6.830;2024-03-07T07:25:11;35.08;;;21.08;;
14732;SDS011;7457;50.960;6.830;2024-03-07T07:27:43;31.70;;;19.88;;
14732;SDS011;7457;50.960;6.830;2024-03-07T07:30:14;28.85;;;19.70;;
14732;SDS011;7457;50.960;6.830;2024-03-07T07:32:41;27.88;;;18.75;;
14732;SDS011;7457;50.960;6.830;2024-03-07T07:35:08;38.15;;;21.48;;
14732;SDS011;7457;50.960;6.830;2024-03-07T07:37:39;29.80;;;20.00;;
14732;SDS011;7457;50.960;6.830;2024-03-07T07:40:13;28.60;;;19.98;;
14732;SDS011;7457;50.960;6.830;2024-03-07T07:42:43;27.25;;;19.25;;
14732;SDS011;7457;50.960;6.830;2024-03-07T07:45:12;27.60;;;19.30;;
14732;SDS011;7457;50.960;6.830;2024-03-07T07:47:39;23.88;;;17.55;;
14732;SDS011;7457;50.960;6.830;2024-03-07T07:50:17;27.23;;;18.30;;
14732;SDS011;7457;50.960;6.830;2024-03-07T07:52:48;25.95;;;17.90;;
14732;SDS011;7457;50.960;6.830;2024-03-07T07:55:16;26.73;;;18.17;;
14732;SDS011;7457;50.960;6.830;2024-03-07T08:00:17;23.50;;;18.33;;
14732;SDS011;7457;50.960;6.830;2024-03-07T08:05:27;26.65;;;18.13;;
14732;SDS011;7457;50.960;6.830;2024-03-07T08:07:57;26.50;;;18.48;;
14732;SDS011;7457;50.960;6.830;2024-03-07T08:10:31;25.33;;;18.05;;
14732;SDS011;7457;50.960;6.830;2024-03-07T08:12:59;21.15;;;16.60;;
14732;SDS011;7457;50.960;6.830;2024-03-07T08:15:27;23.80;;;17.75;;
14732;SDS011;7457;50.960;6.830;2024-03-07T08:17:53;23.23;;;17.67;;
14732;SDS011;7457;50.960;6.830;2024-03-07T08:20:23;24.55;;;18.17;;
14732;SDS011;7457;50.960;6.830;2024-03-07T08:22:51;21.85;;;16.83;;
14732;SDS011;7457;50.960;6.830;2024-03-07T08:25:22;20.40;;;16.08;;
14732;SDS011;7457;50.960;6.830;2024-03-07T08:27:49;22.33;;;16.73;;
14732;SDS011;7457;50.960;6.830;2024-03-07T08:30:17;21.13;;;16.17;;
14732;SDS011;7457;50.960;6.830;2024-03-07T08:32:49;21.60;;;15.98;;
14732;SDS011;7457;50.960;6.830;2024-03-07T08:35:19;22.58;;;16.52;;
14732;SDS011;7457;50.960;6.830;2024-03-07T08:37:45;20.08;;;15.93;;
14732;SDS011;7457;50.960;6.830;2024-03-07T08:40:18;18.70;;;14.98;;
14732;SDS011;7457;50.960;6.830;2024-03-07T08:42:49;18.98;;;15.18;;
14732;SDS011;7457;50.960;6.830;2024-03-07T08:45:16;20.70;;;15.35;;
14732;SDS011;7457;50.960;6.830;2024-03-07T08:47:44;20.58;;;15.13;;
14732;SDS011;7457;50.960;6.830;2024-03-07T08:50:11;19.92;;;14.77;;
14732;SDS011;7457;50.960;6.830;2024-03-07T08:52:39;19.30;;;15.40;;
14732;SDS011;7457;50.960;6.830;2024-03-07T08:55:06;21.17;;;15.55;;
14732;SDS011;7457;50.960;6.830;2024-03-07T08:57:35;17.30;;;13.48;;
14732;SDS011;7457;50.960;6.830;2024-03-07T09:00:02;20.35;;;14.77;;
14732;SDS011;7457;50.960;6.830;2024-03-07T09:02:37;17.42;;;12.73;;
14732;SDS011;7457;50.960;6.830;2024-03-07T09:05:04;22.52;;;12.65;;
14732;SDS011;7457;50.960;6.830;2024-03-07T09:07:31;17.90;;;13.18;;
14732;SDS011;7457;50.960;6.830;2024-03-07T09:09:57;18.75;;;15.38;;
14732;SDS011;7457;50.960;6.830;2024-03-07T09:12:23;19.83;;;13.65;;
14732;SDS011;7457;50.960;6.830;2024-03-07T09:14:52;16.90;;;13.35;;
14732;SDS011;7457;50.960;6.830;2024-03-07T09:17:18;18.65;;;13.48;;
14732;SDS011;7457;50.960;6.830;2024-03-07T09:19:44;17.58;;;12.80;;
14732;SDS011;7457;50.960;6.830;2024-03-07T09:22:10;18.17;;;13.43;;
14732;SDS011;7457;50.960;6.830;2024-03-07T09:24:36;16.25;;;12.60;;
14732;SDS011;7457;50.960;6.830;2024-03-07T09:27:03;16.85;;;12.55;;
14732;SDS011;7457;50.960;6.830;2024-03-07T09:29:29;14.45;;;10.85;;
14732;SDS011;7457;50.960;6.830;2024-03-07T09:31:55;17.67;;;12.52;;
14732;SDS011;7457;50.960;6.830;2024-03-07T09:34:22;16.52;;;11.93;;
14732;SDS011;7457;50.960;6.830;2024-03-07T09:36:49;18.92;;;13.13;;
14732;SDS011;7457;50.960;6.830;2024-03-07T09:39:15;18.92;;;13.48;;
14732;SDS011;7457;50.960;6.830;2024-03-07T09:41:41;17.15;;;13.15;;
14732;SDS011;7457;50.960;6.830;2024-03-07T09:44:10;19.98;;;13.60;;
14732;SDS011;7457;50.960;6.830;2024-03-07T09:46:39;18.77;;;13.02;;
14732;SDS011;7457;50.960;6.830;2024-03-07T09:49:05;17.70;;;13.15;;
14732;SDS011;7457;50.960;6.830;2024-03-07T09:51:34;18.05;;;13.32;;
14732;SDS011;7457;50.960;6.830;2024-03-07T09:54:00;16.88;;;12.32;;
14732;SDS011;7457;50.960;6.830;2024-03-07T10:13:07;16.73;;;12.38;;
14732;SDS011;7457;50.960;6.830;2024-03-07T10:15:34;16.40;;;12.25;;
14732;SDS011;7457;50.960;6.830;2024-03-07T10:18:00;16.45;;;12.02;;
14732;SDS011;7457;50.960;6.830;2024-03-07T10:20:26;18.30;;;14.30;;
14732;SDS011;7457;50.960;6.830;2024-03-07T10:22:52;18.15;;;13.65;;
14732;SDS011;7457;50.960;6.830;2024-03-07T10:25:19;17.98;;;14.05;;
14732;SDS011;7457;50.960;6.830;2024-03-07T10:27:50;15.25;;;11.82;;
14732;SDS011;7457;50.960;6.830;2024-03-07T10:30:16;27.52;;;14.05;;
14732;SDS011;7457;50.960;6.830;2024-03-07T10:32:52;21.30;;;13.07;;
14732;SDS011;7457;50.960;6.830;2024-03-07T10:35:21;19.42;;;13.85;;
14732;SDS011;7457;50.960;6.830;2024-03-07T10:37:50;17.42;;;13.45;;
14732;SDS011;7457;50.960;6.830;2024-03-07T10:40:19;18.00;;;13.10;;
14732;SDS011;7457;50.960;6.830;2024-03-07T10:42:46;17.75;;;12.95;;
14732;SDS011;7457;50.960;6.830;2024-03-07T10:45:17;18.20;;;14.52;;
14732;SDS011;7457;50.960;6.830;2024-03-07T10:47:44;19.15;;;13.35;;
14732;SDS011;7457;50.960;6.830;2024-03-07T10:50:30;19.25;;;13.57;;
14732;SDS011;7457;50.960;6.830;2024-03-07T10:53:29;16.60;;;13.23;;
14732;SDS011;7457;50.960;6.830;2024-03-07T10:58:49;19.60;;;15.40;;
14732;SDS011;7457;50.960;6.830;2024-03-07T11:01:30;18.20;;;13.35;;
14732;SDS011;7457;50.960;6.830;2024-03-07T11:04:00;20.15;;;13.73;;
14732;SDS011;7457;50.960;6.830;2024-03-07T11:06:29;19.55;;;15.10;;
14732;SDS011;7457;50.960;6.830;2024-03-07T11:08:59;20.35;;;13.50;;
14732;SDS011;7457;50.960;6.830;2024-03-07T11:11:26;18.55;;;13.27;;
14732;SDS011;7457;50.960;6.830;2024-03-07T11:13:53;20.75;;;13.95;;
14732;SDS011;7457;50.960;6.830;2024-03-07T11:16:20;17.42;;;13.73;;
14732;SDS011;7457;50.960;6.830;2024-03-07T11:21:47;17.35;;;13.10;;
14732;SDS011;7457;50.960;6.830;2024-03-07T11:24:31;19.33;;;13.85;;
14732;SDS011;7457;50.960;6.830;2024-03-07T11:27:04;18.58;;;14.10;;
14732;SDS011;7457;50.960;6.830;2024-03-07T11:32:09;20.45;;;15.88;;
14732;SDS011;7457;50.960;6.830;2024-03-07T11:34:39;18.58;;;13.07;;
14732;SDS011;7457;50.960;6.830;2024-03-07T11:37:16;18.55;;;14.15;;
14732;SDS011;7457;50.960;6.830;2024-03-07T11:39:49;18.88;;;14.65;;
14732;SDS011;7457;50.960;6.830;2024-03-07T11:42:27;16.73;;;14.38;;
14732;SDS011;7457;50.960;6.830;2024-03-07T11:44:55;19.48;;;13.98;;
14732;SDS011;7457;50.960;6.830;2024-03-07T11:47:23;18.70;;;13.82;;
14732;SDS011;7457;50.960;6.830;2024-03-07T11:49:52;18.73;;;14.35;;
14732;SDS011;7457;50.960;6.830;2024-03-07T11:52:18;19.55;;;13.57;;
14732;SDS011;7457;50.960;6.830;2024-03-07T11:54:44;19.05;;;13.27;;
14732;SDS011;7457;50.960;6.830;2024-03-07T11:59:44;18.70;;;13.02;;
14732;SDS011;7457;50.960;6.830;2024-03-07T12:02:12;18.90;;;13.65;;
14732;SDS011;7457;50.960;6.830;2024-03-07T12:04:40;17.42;;;12.77;;
14732;SDS011;7457;50.960;6.830;2024-03-07T12:07:06;19.58;;;13.05;;
14732;SDS011;7457;50.960;6.830;2024-03-07T12:09:36;20.42;;;13.85;;
14732;SDS011;7457;50.960;6.830;2024-03-07T12:12:03;17.98;;;12.73;;
14732;SDS011;7457;50.960;6.830;2024-03-07T12:14:32;15.77;;;12.95;;
14732;SDS011;7457;50.960;6.830;2024-03-07T12:16:59;17.17;;;12.75;;
14732;SDS011;7457;50.960;6.830;2024-03-07T12:19:34;16.52;;;12.88;;
14732;SDS011;7457;50.960;6.830;2024-03-07T12:22:03;17.77;;;13.52;;
14732;SDS011;7457;50.960;6.830;2024-03-07T12:24:29;17.30;;;13.15;;
14732;SDS011;7457;50.960;6.830;2024-03-07T12:27:04;16.08;;;11.57;;
14732;SDS011;7457;50.960;6.830;2024-03-07T12:29:35;16.38;;;12.93;;
14732;SDS011;7457;50.960;6.830;2024-03-07T12:32:05;16.58;;;12.60;;
14732;SDS011;7457;50.960;6.830;2024-03-07T12:34:39;15.80;;;11.65;;
14732;SDS011;7457;50.960;6.830;2024-03-07T12:37:10;16.48;;;12.55;;
14732;SDS011;7457;50.960;6.830;2024-03-07T12:39:41;14.32;;;11.05;;
14732;SDS011;7457;50.960;6.830;2024-03-07T12:42:15;16.58;;;12.85;;
14732;SDS011;7457;50.960;6.830;2024-03-07T12:44:45;13.75;;;11.70;;
14732;SDS011;7457;50.960;6.830;2024-03-07T12:47:15;14.95;;;11.55;;
14732;SDS011;7457;50.960;6.830;2024-03-07T12:49:44;15.68;;;11.63;;
14732;SDS011;7457;50.960;6.830;2024-03-07T12:52:13;13.25;;;11.45;;
14732;SDS011;7457;50.960;6.830;2024-03-07T12:54:40;16.75;;;11.07;;
14732;SDS011;7457;50.960;6.830;2024-03-07T12:57:10;15.27;;;11.65;;
14732;SDS011;7457;50.960;6.830;2024-03-07T12:59:37;15.23;;;11.60;;
14732;SDS011;7457;50.960;6.830;2024-03-07T13:02:10;17.35;;;13.13;;
14732;SDS011;7457;50.960;6.830;2024-03-07T13:04:36;13.05;;;10.57;;
14732;SDS011;7457;50.960;6.830;2024-03-07T13:07:06;12.52;;;9.88;;
14732;SDS011;7457;50.960;6.830;2024-03-07T13:09:32;15.02;;;10.85;;
14732;SDS011;7457;50.960;6.830;2024-03-07T13:11:59;14.23;;;10.98;;
14732;SDS011;7457;50.960;6.830;2024-03-07T13:14:29;13.57;;;9.98;;
14732;SDS011;7457;50.960;6.830;2024-03-07T13:16:58;11.80;;;9.23;;
14732;SDS011;7457;50.960;6.830;2024-03-07T13:19:28;10.55;;;8.45;;
14732;SDS011;7457;50.960;6.830;2024-03-07T13:21:55;11.43;;;8.85;;
14732;SDS011;7457;50.960;6.830;2024-03-07T13:24:21;11.85;;;8.65;;
14732;SDS011;7457;50.960;6.830;2024-03-07T13:26:48;11.13;;;8.48;;
14732;SDS011;7457;50.960;6.830;2024-03-07T13:29:14;12.23;;;9.63;;
14732;SDS011;7457;50.960;6.830;2024-03-07T13:31:40;10.02;;;8.43;;
14732;SDS011;7457;50.960;6.830;2024-03-07T13:34:11;14.27;;;10.30;;
14732;SDS011;7457;50.960;6.830;2024-03-07T13:36:40;11.05;;;8.77;;
14732;SDS011;7457;50.960;6.830;2024-03-07T13:39:07;13.75;;;9.98;;
14732;SDS011;7457;50.960;6.830;2024-03-07T13:41:39;12.18;;;9.52;;
14732;SDS011;7457;50.960;6.830;2024-03-07T13:44:05;12.85;;;9.60;;
14732;SDS011;7457;50.960;6.830;2024-03-07T13:46:31;13.15;;;9.18;;
14732;SDS011;7457;50.960;6.830;2024-03-07T13:49:00;12.15;;;8.52;;
14732;SDS011;7457;50.960;6.830;2024-03-07T13:51:38;15.00;;;9.55;;
14732;SDS011;7457;50.960;6.830;2024-03-07T13:54:15;13.52;;;9.63;;
14732;SDS011;7457;50.960;6.830;2024-03-07T13:57:01;13.93;;;9.50;;
14732;SDS011;7457;50.960;6.830;2024-03-07T14:08:14;12.88;;;8.85;;
14732;SDS011;7457;50.960;6.830;2024-03-07T14:11:09;10.10;;;8.45;;
14732;SDS011;7457;50.960;6.830;2024-03-07T14:19:59;13.43;;;9.55;;
14732;SDS011;7457;50.960;6.830;2024-03-07T14:23:31;9.65;;;8.57;;
14732;SDS011;7457;50.960;6.830;2024-03-07T14:31:10;12.32;;;8.18;;
14732;SDS011;7457;50.960;6.830;2024-03-07T14:39:24;12.77;;;8.15;;
14732;SDS011;7457;50.960;6.830;2024-03-07T14:42:01;11.60;;;8.35;;
14732;SDS011;7457;50.960;6.830;2024-03-07T14:44:29;10.30;;;7.68;;
14732;SDS011;7457;50.960;6.830;2024-03-07T14:47:06;12.77;;;8.13;;
14732;SDS011;7457;50.960;6.830;2024-03-07T14:49:33;10.55;;;8.68;;
14732;SDS011;7457;50.960;6.830;2024-03-07T14:51:59;10.88;;;8.02;;
14732;SDS011;7457;50.960;6.830;2024-03-07T14:54:26;11.88;;;8.52;;
14732;SDS011;7457;50.960;6.830;2024-03-07T14:56:52;12.13;;;8.85;;
14732;SDS011;7457;50.960;6.830;2024-03-07T14:59:18;10.43;;;8.05;;
14732;SDS011;7457;50.960;6.830;2024-03-07T15:01:44;9.48;;;8.02;;
14732;SDS011;7457;50.960;6.830;2024-03-07T15:04:10;11.32;;;8.38;;
14732;SDS011;7457;50.960;6.830;2024-03-07T15:06:39;10.32;;;8.02;;
14732;SDS011;7457;50.960;6.830;2024-03-07T15:09:07;10.70;;;7.88;;
14732;SDS011;7457;50.960;6.830;2024-03-07T15:11:35;11.40;;;8.90;;
14732;SDS011;7457;50.960;6.830;2024-03-07T15:14:09;12.32;;;8.75;;
14732;SDS011;7457;50.960;6.830;2024-03-07T15:16:36;11.65;;;8.57;;
14732;SDS011;7457;50.960;6.830;2024-03-07T15:19:05;12.70;;;8.23;;
14732;SDS011;7457;50.960;6.830;2024-03-07T15:21:32;11.18;;;7.53;;
14732;SDS011;7457;50.960;6.830;2024-03-07T15:23:59;10.82;;;7.53;;
14732;SDS011;7457;50.960;6.830;2024-03-07T15:26:25;12.00;;;8.23;;
14732;SDS011;7457;50.960;6.830;2024-03-07T15:28:54;8.65;;;7.30;;
14732;SDS011;7457;50.960;6.830;2024-03-07T15:31:21;8.77;;;6.88;;
14732;SDS011;7457;50.960;6.830;2024-03-07T15:33:48;10.45;;;7.15;;
14732;SDS011;7457;50.960;6.830;2024-03-07T15:36:16;8.68;;;7.15;;
14732;SDS011;7457;50.960;6.830;2024-03-07T15:38:43;9.40;;;8.02;;
14732;SDS011;7457;50.960;6.830;2024-03-07T15:41:10;9.52;;;7.47;;